Time;durP1;ratioP1;P1;durP2;ratioP2;P2;SDS_P1;SDS_P2;PMS_P1;PMS_P2;Temp;Humidity;BMP_temperature;BMP_pressure;BME280_temperature;BME280_humidity;BME280_pressure;Samples;Min_cycle;Max_cycle;Signal;HPM_P1;HPM_P2
2022/05/08 00:00:10;;;;;;;23.98;14.60;;;;;;;10.44;100.00;95952.25;5071066;28;20044;-74
2022/05/08 00:02:57;;;;;;;26.17;15.07;;;;;;;10.48;100.00;95958.59;5091107;28;20559;-74
2022/05/08 00:05:23;;;;;;;26.08;14.80;;;;;;;10.49;100.00;95954.13;5071233;28;20052;-74
2022/05/08 00:07:49;;;;;;;24.23;14.90;;;;;;;10.47;100.00;95950.94;5071197;28;20218;-75
2022/05/08 00:10:14;;;;;;;24.88;14.93;;;;;;;10.44;100.00;95946.97;5070658;28;20079;-74
2022/05/08 00:12:40;;;;;;;27.38;15.95;;;;;;;10.40;100.00;95945.91;5070917;28;20084;-75
2022/05/08 00:15:06;;;;;;;25.58;15.57;;;;;;;10.40;100.00;95945.91;5065438;28;20120;-75
2022/05/08 00:17:34;;;;;;;26.08;15.38;;;;;;;10.43;100.00;95941.97;5071166;28;20041;-75
2022/05/08 00:20:02;;;;;;;27.45;16.15;;;;;;;10.43;100.00;95948.06;5069858;28;20053;-74
2022/05/08 00:22:28;;;;;;;26.38;15.73;;;;;;;10.39;100.00;95944.34;5066092;28;20052;-75
2022/05/08 00:24:53;;;;;;;26.67;15.95;;;;;;;10.40;100.00;95940.66;5069218;28;20044;-75
2022/05/08 00:27:19;;;;;;;29.95;16.05;;;;;;;10.43;100.00;95949.88;5065621;28;20131;-75
2022/05/08 00:29:45;;;;;;;25.48;15.13;;;;;;;10.41;100.00;95936.97;5068769;28;20043;-75
2022/05/08 00:32:10;;;;;;;28.58;15.73;;;;;;;10.43;100.00;95945.44;5076351;28;20681;-74
2022/05/08 00:34:36;;;;;;;25.35;15.93;;;;;;;10.46;100.00;95944.09;5067188;28;20079;-74
2022/05/08 00:37:03;;;;;;;30.95;17.00;;;;;;;10.43;100.00;95939.34;5050937;28;20044;-74
2022/05/08 00:39:28;;;;;;;31.48;17.05;;;;;;;10.42;100.00;95933.31;5062637;28;20036;-74
2022/05/08 00:41:54;;;;;;;35.95;19.88;;;;;;;10.43;100.00;95934.91;5070939;28;20426;-74
2022/05/08 00:44:20;;;;;;;33.63;18.15;;;;;;;10.44;100.00;95936.47;5067739;28;20048;-74
2022/05/08 00:46:45;;;;;;;38.28;19.45;;;;;;;10.45;100.00;95943.31;5070630;28;20040;-75
2022/05/08 00:49:11;;;;;;;33.60;18.08;;;;;;;10.51;100.00;95926.50;5078132;28;20040;-74
2022/05/08 00:51:37;;;;;;;32.80;18.45;;;;;;;10.46;100.00;95923.84;5070671;28;20040;-74
2022/05/08 00:54:04;;;;;;;32.45;16.95;;;;;;;10.48;100.00;95927.00;5077228;28;20066;-74
2022/05/08 00:56:30;;;;;;;30.40;17.55;;;;;;;10.45;100.00;95932.00;5070619;28;20506;-74
2022/05/08 00:58:56;;;;;;;40.47;21.55;;;;;;;10.49;100.00;95928.59;5073663;28;20048;-75
2022/05/08 01:01:22;;;;;;;49.60;22.48;;;;;;;10.49;100.00;95933.84;5070369;28;20040;-75
2022/05/08 01:03:48;;;;;;;46.60;22.75;;;;;;;10.51;100.00;95923.84;5069704;28;20040;-75
2022/05/08 01:06:16;;;;;;;45.75;22.25;;;;;;;10.52;100.00;95933.34;5067457;28;20040;-75
2022/05/08 01:08:44;;;;;;;45.53;21.83;;;;;;;10.48;100.00;95921.75;5069859;28;20052;-75
2022/05/08 01:11:11;;;;;;;50.47;22.98;;;;;;;10.48;100.00;95924.38;5067109;28;20074;-75
2022/05/08 01:13:38;;;;;;;46.03;23.00;;;;;;;10.48;100.00;95927.00;5069298;28;20102;-75
2022/05/08 01:16:12;;;;;;;44.25;22.23;;;;;;;10.49;100.00;95918.06;5070227;28;20040;-75
2022/05/08 01:18:38;;;;;;;47.00;22.63;;;;;;;10.49;100.00;95925.97;5064899;28;20723;-74
2022/05/08 01:21:07;;;;;;;46.00;22.73;;;;;;;10.48;100.00;95919.13;5077015;28;20044;-75
2022/05/08 01:23:32;;;;;;;50.60;24.40;;;;;;;10.51;100.00;95923.84;5069058;28;20063;-75
2022/05/08 01:25:58;;;;;;;49.90;24.08;;;;;;;10.52;100.00;95917.56;5069520;28;20068;-75
2022/05/08 01:28:25;;;;;;;48.05;23.15;;;;;;;10.53;100.00;95919.16;5065631;28;20095;-75
2022/05/08 01:30:52;;;;;;;52.17;24.75;;;;;;;10.53;100.00;95919.16;5078048;28;20040;-75
2022/05/08 01:33:19;;;;;;;48.80;24.75;;;;;;;10.52;100.00;95917.56;5069530;28;20044;-75
2022/05/08 01:35:45;;;;;;;51.63;25.38;;;;;;;10.53;100.00;95918.34;5067108;28;20040;-75
2022/05/08 01:38:16;;;;;;;51.40;25.00;;;;;;;10.55;100.00;95917.03;5069824;28;20043;-74
2022/05/08 01:40:43;;;;;;;51.15;25.02;;;;;;;10.53;100.00;95913.88;5067697;28;20634;-75
2022/05/08 01:43:10;;;;;;;51.55;25.85;;;;;;;10.50;100.00;95917.03;5081957;28;20040;-74
2022/05/08 01:45:36;;;;;;;50.40;25.35;;;;;;;10.51;100.00;95921.22;5071400;28;20045;-75
2022/05/08 01:50:48;;;;;;;54.47;26.27;;;;;;;10.52;100.00;95917.56;5071756;28;20044;-75
2022/05/08 01:53:13;;;;;;;51.30;24.38;;;;;;;10.54;100.00;95917.28;5067260;28;20511;-75
2022/05/08 01:55:39;;;;;;;53.58;25.38;;;;;;;10.54;100.00;95920.72;5087141;28;20044;-75
2022/05/08 01:58:05;;;;;;;53.58;26.63;;;;;;;10.56;100.00;95918.63;5060697;28;20602;-74
2022/05/08 02:00:31;;;;;;;53.97;25.85;;;;;;;10.57;100.00;95922.84;5073474;28;20049;-74
2022/05/08 02:02:59;;;;;;;51.17;26.30;;;;;;;10.54;100.00;95923.38;5069780;28;20094;-75
2022/05/08 02:05:25;;;;;;;54.88;27.73;;;;;;;10.53;100.00;95929.66;5066598;28;20182;-75
2022/05/08 02:07:51;;;;;;;50.67;26.10;;;;;;;10.53;100.00;95924.41;5070305;28;20032;-75
2022/05/08 02:10:18;;;;;;;54.67;26.00;;;;;;;10.53;100.00;95929.66;5080327;28;20051;-75
2022/05/08 02:12:44;;;;;;;55.35;27.70;;;;;;;10.52;100.00;95933.34;5068381;28;20040;-75
2022/05/08 02:15:12;;;;;;;52.08;26.00;;;;;;;10.55;100.00;95932.03;5056551;28;20037;-75
2022/05/08 02:17:39;;;;;;;49.38;24.52;;;;;;;10.54;100.00;95930.44;5067421;28;20094;-75
2022/05/08 02:20:06;;;;;;;57.10;26.85;;;;;;;10.51;100.00;95926.50;5077301;28;20111;-75
2022/05/08 02:22:33;;;;;;;52.70;25.67;;;;;;;10.54;100.00;95926.00;5062034;28;20044;-75
2022/05/08 02:24:59;;;;;;;50.08;26.30;;;;;;;10.53;100.00;95928.84;5067041;28;20044;-75
2022/05/08 02:27:25;;;;;;;51.47;24.30;;;;;;;10.55;100.00;95927.56;5062615;28;20045;-75
2022/05/08 02:29:51;;;;;;;48.75;25.27;;;;;;;10.50;100.00;95919.66;5059711;28;20044;-75
2022/05/08 02:32:18;;;;;;;52.60;25.73;;;;;;;10.55;100.00;95927.56;5068345;28;20055;-75
2022/05/08 02:34:44;;;;;;;49.13;25.00;;;;;;;10.57;100.00;95920.22;5055631;28;20048;-75
2022/05/08 02:37:10;;;;;;;50.50;25.83;;;;;;;10.52;100.00;95920.19;5063060;28;20044;-75
2022/05/08 02:39:36;;;;;;;54.95;26.10;;;;;;;10.45;100.00;95916.22;5068760;28;20487;-75
2022/05/08 02:42:02;;;;;;;51.88;26.23;;;;;;;10.50;100.00;95919.66;5069030;28;20405;-75
2022/05/08 02:44:27;;;;;;;56.88;27.40;;;;;;;10.50;100.00;95924.13;5068365;28;20056;-75
2022/05/08 02:46:53;;;;;;;55.67;28.00;;;;;;;10.49;100.00;95918.06;5065943;28;20036;-75
2022/05/08 02:49:19;;;;;;;52.75;26.25;;;;;;;10.51;100.00;95921.22;5081374;28;20040;-75
2022/05/08 02:51:44;;;;;;;48.42;26.48;;;;;;;10.52;100.00;95928.06;5068919;28;20044;-75
2022/05/08 02:54:10;;;;;;;54.45;27.65;;;;;;;10.50;100.00;95918.84;5066565;28;20036;-76
2022/05/08 02:59:19;;;;;;;53.65;26.63;;;;;;;10.47;100.00;95924.63;5065747;28;20044;-76
2022/05/08 03:01:45;;;;;;;58.22;27.20;;;;;;;10.50;100.00;95930.19;5068911;28;20043;-75
2022/05/08 03:04:10;;;;;;;63.95;29.45;;;;;;;10.47;100.00;95925.41;5072212;28;20047;-75
2022/05/08 03:06:36;;;;;;;58.08;27.20;;;;;;;10.46;100.00;95923.84;5067997;28;20067;-75
2022/05/08 03:09:02;;;;;;;54.30;26.02;;;;;;;10.45;100.00;95924.91;5070660;28;20045;-75
2022/05/08 03:11:32;;;;;;;59.25;28.10;;;;;;;10.45;100.00;95929.38;5072256;28;20528;-75
2022/05/08 03:13:59;;;;;;;59.45;28.33;;;;;;;10.45;100.00;95921.47;5071626;28;20048;-75
2022/05/08 03:16:28;;;;;;;65.63;29.50;;;;;;;10.45;100.00;95922.25;5072096;28;20083;-74
2022/05/08 03:18:55;;;;;;;58.90;27.70;;;;;;;10.47;100.00;95925.41;5072433;28;20064;-75
2022/05/08 03:21:22;;;;;;;58.50;28.45;;;;;;;10.48;100.00;95926.22;5075687;28;20060;-75
2022/05/08 03:23:48;;;;;;;58.08;28.08;;;;;;;10.50;100.00;95924.13;5054876;28;20052;-74
2022/05/08 03:26:15;;;;;;;61.47;27.23;;;;;;;10.50;100.00;95921.47;5069815;28;20040;-75
2022/05/08 03:28:42;;;;;;;57.80;27.60;;;;;;;10.49;100.00;95927.81;5070485;28;20047;-75
2022/05/08 03:31:09;;;;;;;55.13;27.00;;;;;;;10.50;100.00;95924.94;5072048;28;20040;-75
2022/05/08 03:33:37;;;;;;;61.15;28.35;;;;;;;10.52;100.00;95928.06;5072175;28;20028;-75
2022/05/08 03:36:04;;;;;;;64.35;29.02;;;;;;;10.53;100.00;95923.59;5070828;28;20063;-75
2022/05/08 03:38:30;;;;;;;63.13;29.88;;;;;;;10.54;100.00;95931.25;5056482;28;20044;-75
2022/05/08 03:40:56;;;;;;;62.70;29.45;;;;;;;10.58;100.00;95927.03;5082866;28;20411;-75
2022/05/08 03:43:22;;;;;;;64.70;29.95;;;;;;;10.62;100.00;95923.91;5071881;28;20056;-75
2022/05/08 03:45:49;;;;;;;56.38;27.17;;;;;;;10.64;100.00;95929.69;5070552;28;20056;-75
2022/05/08 03:48:15;;;;;;;56.70;26.92;;;;;;;10.58;100.00;95927.03;5080459;28;20414;-75
2022/05/08 03:50:41;;;;;;;61.88;29.45;;;;;;;10.52;100.00;95922.81;5083894;28;20037;-75
2022/05/08 03:53:07;;;;;;;68.72;30.83;;;;;;;10.55;100.00;95924.94;5081516;28;20102;-75
2022/05/08 03:55:32;;;;;;;68.72;31.50;;;;;;;10.57;100.00;95925.47;5069802;28;20680;-75
2022/05/08 03:57:58;;;;;;;66.93;31.05;;;;;;;10.55;100.00;95921.50;5061260;28;20120;-75
2022/05/08 04:00:23;;;;;;;67.88;30.88;;;;;;;10.56;100.00;95929.16;5065413;28;20044;-75
2022/05/08 04:02:49;;;;;;;73.18;34.00;;;;;;;10.54;100.00;95920.72;5071291;28;20075;-75
2022/05/08 04:05:16;;;;;;;73.45;32.65;;;;;;;10.58;100.00;95919.13;5067804;28;20099;-75
2022/05/08 04:07:41;;;;;;;74.60;34.28;;;;;;;10.58;100.00;95921.00;5071258;28;20045;-75
2022/05/08 04:10:08;;;;;;;68.25;32.78;;;;;;;10.54;100.00;95926.00;5071313;28;20044;-75
2022/05/08 04:12:35;;;;;;;69.68;32.83;;;;;;;10.56;100.00;95923.09;5071071;28;20078;-75
2022/05/08 04:15:00;;;;;;;72.00;33.97;;;;;;;10.56;100.00;95923.88;5069148;28;20083;-75
2022/05/08 04:17:28;;;;;;;71.72;33.92;;;;;;;10.56;100.00;95923.88;5072550;28;20079;-75
2022/05/08 04:19:55;;;;;;;76.57;33.88;;;;;;;10.56;100.00;95929.16;5078475;28;20036;-76
2022/05/08 04:25:07;;;;;;;72.82;34.20;;;;;;;10.56;100.00;95934.41;5051308;28;20060;-75
2022/05/08 04:27:35;;;;;;;70.88;33.00;;;;;;;10.59;100.00;95933.09;5068180;28;20037;-75
2022/05/08 04:30:01;;;;;;;71.38;33.95;;;;;;;10.62;100.00;95947.59;5071061;28;20119;-75
2022/05/08 04:32:27;;;;;;;71.10;34.38;;;;;;;10.62;100.00;95937.84;5081947;28;20044;-75
2022/05/08 04:34:52;;;;;;;74.00;35.38;;;;;;;10.60;100.00;95944.41;5091123;28;20055;-75
2022/05/08 04:37:18;;;;;;;75.10;34.92;;;;;;;10.58;100.00;95948.09;5062288;28;20120;-75
2022/05/08 04:39:43;;;;;;;73.25;33.70;;;;;;;10.61;100.00;95946.00;5050896;28;20426;-75
2022/05/08 04:42:09;;;;;;;73.85;34.72;;;;;;;10.65;100.00;95947.06;5069062;28;20041;-75
2022/05/08 04:44:34;;;;;;;74.93;34.95;;;;;;;10.64;100.00;95948.13;5070485;28;20129;-75
2022/05/08 04:47:00;;;;;;;71.20;34.15;;;;;;;10.68;100.00;95941.28;5066210;28;20048;-75
2022/05/08 04:49:27;;;;;;;72.90;33.70;;;;;;;10.62;100.00;95947.59;5071420;28;20044;-75
2022/05/08 04:51:53;;;;;;;73.57;33.53;;;;;;;10.65;100.00;95958.38;5074804;28;20037;-75
2022/05/08 04:54:18;;;;;;;73.95;35.17;;;;;;;10.62;100.00;95952.88;5069511;28;20040;-75
2022/05/08 04:56:44;;;;;;;70.32;34.00;;;;;;;10.67;100.00;95955.50;5063076;28;20041;-75
2022/05/08 04:59:09;;;;;;;74.95;35.60;;;;;;;10.70;100.00;95960.25;5050563;28;20561;-75
2022/05/08 05:01:35;;;;;;;74.13;35.40;;;;;;;10.70;100.00;95960.25;5063007;28;20040;-75
2022/05/08 05:04:01;;;;;;;70.40;33.35;;;;;;;10.78;100.00;95962.38;5070066;28;20044;-75
2022/05/08 05:06:27;;;;;;;66.85;34.30;;;;;;;10.72;100.00;95963.41;5070471;28;20036;-75
2022/05/08 05:08:52;;;;;;;66.35;33.13;;;;;;;10.73;100.00;95964.97;5070251;28;20465;-75
2022/05/08 05:11:19;;;;;;;66.85;33.15;;;;;;;10.74;100.00;95966.56;5063729;28;20086;-75
2022/05/08 05:13:44;;;;;;;68.47;32.33;;;;;;;10.74;100.00;95962.09;5070237;28;20072;-75
2022/05/08 05:16:10;;;;;;;68.97;32.45;;;;;;;10.85;100.00;95968.19;5081705;28;20051;-75
2022/05/08 05:18:35;;;;;;;58.08;30.02;;;;;;;10.78;100.00;95972.91;5068846;28;20040;-75
2022/05/08 05:21:01;;;;;;;65.20;31.95;;;;;;;10.87;100.00;95971.34;5056014;28;20079;-75
2022/05/08 05:23:26;;;;;;;60.13;31.67;;;;;;;10.86;100.00;95969.78;5069528;28;20048;-75
2022/05/08 05:25:52;;;;;;;67.47;32.90;;;;;;;10.82;100.00;95967.91;5083528;28;20510;-75
2022/05/08 05:28:18;;;;;;;66.05;32.85;;;;;;;10.87;100.00;95966.06;5067479;28;20416;-75
2022/05/08 05:30:44;;;;;;;73.10;34.22;;;;;;;10.92;100.00;95974.00;5070442;28;20110;-75
2022/05/08 05:33:15;;;;;;;64.65;32.70;;;;;;;10.95;100.00;95974.53;5069580;28;20496;-75
2022/05/08 05:35:41;;;;;;;61.45;31.00;;;;;;;11.01;100.00;95970.88;5070074;28;20414;-75
2022/05/08 05:38:07;;;;;;;67.93;33.45;;;;;;;10.96;100.00;95971.66;5061037;28;20044;-75
2022/05/08 05:40:33;;;;;;;67.70;32.97;;;;;;;11.03;100.00;95976.66;5088162;28;20040;-75
2022/05/08 05:42:59;;;;;;;69.30;34.08;;;;;;;11.00;100.00;95975.31;5069113;28;20047;-75
2022/05/08 05:45:25;;;;;;;67.15;33.25;;;;;;;11.04;100.00;95976.38;5055467;28;20045;-75
2022/05/08 05:47:52;;;;;;;63.38;32.28;;;;;;;11.08;100.00;95982.72;5074610;28;20036;-75
2022/05/08 05:50:22;;;;;;;62.85;31.85;;;;;;;11.15;100.00;95982.47;5061274;28;20116;-75
2022/05/08 05:52:48;;;;;;;61.55;32.45;;;;;;;11.15;100.00;95985.13;5066515;28;20039;-75
2022/05/08 05:55:15;;;;;;;60.15;31.35;;;;;;;11.14;100.00;95986.16;5060931;28;20109;-75
2022/05/08 05:57:41;;;;;;;60.83;32.60;;;;;;;11.15;100.00;95984.31;5073466;28;20060;-75
2022/05/08 06:00:13;;;;;;;68.30;32.33;;;;;;;11.24;100.00;95988.81;5089092;28;20040;-75
2022/05/08 06:02:40;;;;;;;67.03;32.92;;;;;;;11.35;100.00;95991.44;5080221;28;20059;-75
2022/05/08 06:05:06;;;;;;;61.53;31.20;;;;;;;11.36;100.00;95990.41;5061482;28;20049;-75
2022/05/08 06:07:33;;;;;;;59.40;30.70;;;;;;;11.44;100.00;95989.88;5071188;28;20094;-75
2022/05/08 06:09:59;;;;;;;54.35;29.85;;;;;;;11.42;100.00;95991.97;5081397;28;20119;-75
2022/05/08 06:12:25;;;;;;;59.83;30.90;;;;;;;11.46;100.00;95987.78;5068463;28;21920;-75
2022/05/08 06:14:50;;;;;;;58.90;30.85;;;;;;;11.52;100.00;95992.00;5068113;28;20044;-75
2022/05/08 06:17:16;;;;;;;58.00;30.85;;;;;;;11.53;100.00;95988.31;5067859;28;20036;-76
2022/05/08 06:19:41;;;;;;;58.42;31.17;;;;;;;11.53;100.00;95992.78;5068629;28;20454;-74
2022/05/08 06:22:07;;;;;;;55.35;31.67;;;;;;;11.51;100.00;95990.41;5069567;28;20048;-78
2022/05/08 06:24:34;;;;;;;62.97;32.35;;;;;;;11.59;100.00;95987.28;5069059;28;20040;-75
2022/05/08 06:27:00;;;;;;;54.70;29.58;;;;;;;11.57;100.00;95999.91;5083480;28;20452;-76
2022/05/08 06:29:25;;;;;;;51.42;28.10;;;;;;;11.50;100.00;95994.09;5069094;28;20036;-76
2022/05/08 06:31:52;;;;;;;48.88;28.27;;;;;;;11.55;100.00;95996.75;5067911;28;20040;-75
2022/05/08 06:34:18;;;;;;;53.50;28.33;;;;;;;11.73;100.00;96002.56;5068166;28;20040;-75
2022/05/08 06:36:44;;;;;;;47.25;26.67;;;;;;;11.64;100.00;95998.84;5062649;28;20094;-75
2022/05/08 06:39:10;;;;;;;46.92;27.80;;;;;;;11.64;100.00;95993.56;5068657;28;20043;-76
2022/05/08 06:41:36;;;;;;;46.92;26.13;;;;;;;11.66;100.00;95999.38;5066625;28;20037;-75
2022/05/08 06:44:02;;;;;;;46.55;27.05;;;;;;;11.63;100.00;96007.81;5077220;28;20506;-78
2022/05/08 06:46:31;;;;;;;44.78;26.13;;;;;;;11.71;100.00;95999.38;5074790;28;20513;-75
2022/05/08 06:48:57;;;;;;;47.28;27.80;;;;;;;11.76;100.00;95996.75;5068472;28;20040;-75
2022/05/08 06:51:23;;;;;;;45.95;26.63;;;;;;;11.81;100.00;96009.94;5066017;28;20043;-75
2022/05/08 06:53:48;;;;;;;52.17;27.15;;;;;;;11.75;100.00;96000.44;5068191;28;20033;-77
2022/05/08 06:56:16;;;;;;;47.00;27.75;;;;;;;11.90;100.00;95997.78;5069058;28;20045;-76
2022/05/08 07:01:36;;;;;;;45.67;26.45;;;;;;;11.88;100.00;95994.63;5072133;28;20036;-76
2022/05/08 07:04:03;;;;;;;45.22;25.48;;;;;;;11.94;100.00;96001.50;5068761;28;20524;-75
2022/05/08 07:06:29;;;;;;;41.92;26.02;;;;;;;11.94;100.00;96003.38;5066857;28;20490;-75
2022/05/08 07:08:54;;;;;;;42.38;25.35;;;;;;;11.81;100.00;96007.31;5068190;28;20039;-75
2022/05/08 07:11:20;;;;;;;49.47;25.38;;;;;;;11.93;100.00;96014.94;5079408;28;20048;-76
2022/05/08 07:13:45;;;;;;;43.45;24.35;;;;;;;11.99;100.00;96011.25;5076957;28;20049;-76
2022/05/08 07:16:11;;;;;;;37.75;23.50;;;;;;;12.10;100.00;96009.41;5052214;28;20098;-76
2022/05/08 07:18:37;;;;;;;43.05;25.17;;;;;;;11.92;100.00;96011.53;5065552;28;20036;-75
2022/05/08 07:21:04;;;;;;;44.70;25.15;;;;;;;11.92;100.00;96019.44;5073420;28;20094;-76
2022/05/08 07:23:31;;;;;;;40.00;24.05;;;;;;;12.03;100.00;96022.09;5066754;28;20516;-76
2022/05/08 07:25:57;;;;;;;39.80;24.13;;;;;;;12.04;100.00;96018.38;5069894;28;20498;-76
2022/05/08 07:28:23;;;;;;;42.58;24.13;;;;;;;12.01;100.00;96021.53;5072199;28;20036;-73
2022/05/08 07:30:49;;;;;;;44.97;25.48;;;;;;;12.03;100.00;96017.59;5068324;28;20558;-73
2022/05/08 07:33:16;;;;;;;40.17;24.17;;;;;;;12.08;100.00;96024.69;5068766;28;20727;-78
2022/05/08 07:38:28;;;;;;;37.47;22.15;;;;;;;12.00;100.00;96028.69;5064202;28;20032;-76
2022/05/08 07:40:54;;;;;;;39.00;23.40;;;;;;;12.29;100.00;96036.03;5077287;28;20039;-76
2022/05/08 07:43:20;;;;;;;35.47;21.55;;;;;;;12.33;100.00;96025.75;5081715;28;20072;-77
2022/05/08 07:45:45;;;;;;;35.28;20.67;;;;;;;12.38;100.00;96031.00;5067709;28;20040;-77
2022/05/08 07:48:11;;;;;;;36.38;21.55;;;;;;;12.49;100.00;96029.91;5069706;28;20102;-77
2022/05/08 07:50:37;;;;;;;36.30;20.42;;;;;;;12.53;100.00;96036.22;5077814;28;20417;-77
2022/05/08 07:53:03;;;;;;;34.83;19.65;;;;;;;12.56;100.00;96025.13;5088458;28;20408;-75
2022/05/08 07:55:29;;;;;;;29.30;18.98;;;;;;;12.50;100.00;96036.78;5061505;28;20048;-76
2022/05/08 07:57:54;;;;;;;33.40;20.13;;;;;;;12.67;100.00;96030.38;5075838;28;20044;-75
2022/05/08 08:00:20;;;;;;;28.55;18.17;;;;;;;12.51;100.00;96033.06;5072155;28;20048;-73
2022/05/08 08:02:45;;;;;;;29.73;19.15;;;;;;;12.53;100.00;96036.22;5070206;28;20040;-74
2022/05/08 08:05:11;;;;;;;32.35;20.88;;;;;;;12.71;100.00;96041.97;5076514;28;20041;-75
2022/05/08 08:07:37;;;;;;;31.35;19.08;;;;;;;12.68;100.00;96031.97;5075870;28;20059;-75
2022/05/08 08:10:04;;;;;;;32.30;18.38;;;;;;;12.65;100.00;96049.91;5071311;28;20033;-75
2022/05/08 08:12:30;;;;;;;32.22;19.92;;;;;;;12.55;100.00;96043.88;5071215;28;20036;-76
2022/05/08 08:14:56;;;;;;;26.27;17.92;;;;;;;12.55;100.00;96049.94;5088211;28;20041;-75
2022/05/08 08:17:22;;;;;;;31.73;19.20;;;;;;;12.58;100.00;96049.41;5072759;28;20048;-78
2022/05/08 08:19:48;;;;;;;31.13;18.50;;;;;;;12.69;100.00;96054.69;5072259;28;20040;-75
2022/05/08 08:22:14;;;;;;;29.42;18.98;;;;;;;12.71;100.00;96042.75;5060626;28;20040;-76
2022/05/08 08:24:40;;;;;;;31.52;18.30;;;;;;;12.66;100.00;96050.72;5064734;28;20079;-76
2022/05/08 08:27:07;;;;;;;30.20;17.85;;;;;;;12.41;100.00;96046.28;5068468;28;20078;-76
2022/05/08 08:29:33;;;;;;;27.95;17.02;;;;;;;12.49;100.00;96045.75;5052585;28;20481;-76
2022/05/08 08:31:59;;;;;;;26.23;16.50;;;;;;;12.60;100.00;96057.88;5069948;28;20047;-75
2022/05/08 08:34:26;;;;;;;28.52;16.95;;;;;;;12.38;100.00;96044.19;5071316;28;20037;-75
2022/05/08 08:36:52;;;;;;;28.65;17.70;;;;;;;12.52;100.00;96061.03;5064107;28;20044;-76
2022/05/08 08:39:18;;;;;;;26.50;17.30;;;;;;;12.39;100.00;96061.59;5070628;28;20040;-75
2022/05/08 08:41:53;;;;;;;29.15;17.20;;;;;;;12.33;100.00;96057.41;5072122;28;20036;-75
2022/05/08 08:49:53;;;;;;;25.00;16.13;;;;;;;12.39;100.00;96066.88;5071823;28;20578;-75
2022/05/08 08:52:21;;;;;;;25.70;15.73;;;;;;;12.38;100.00;96065.31;5070968;28;20040;-75
2022/05/08 08:54:47;;;;;;;24.00;15.65;;;;;;;12.21;100.00;96066.38;5067578;28;20064;-75
2022/05/08 08:57:13;;;;;;;24.35;15.52;;;;;;;12.26;100.00;96069.00;5068739;28;20044;-75
2022/05/08 08:59:39;;;;;;;24.65;15.68;;;;;;;12.18;100.00;96072.16;5070533;28;20127;-75
2022/05/08 09:02:17;;;;;;;23.20;15.25;;;;;;;12.13;100.00;96066.91;5070704;28;20123;-75
2022/05/08 09:04:45;;;;;;;26.17;15.93;;;;;;;12.17;100.00;96075.88;5071053;28;20052;-75
2022/05/08 09:07:36;;;;;;;23.52;14.48;;;;;;;12.32;100.00;96076.94;5066420;28;20045;-74
2022/05/08 09:10:28;;;;;;;23.02;14.98;;;;;;;12.48;100.00;96075.84;5071044;28;20413;-75
2022/05/08 09:12:56;;;;;;;21.50;15.23;;;;;;;12.44;100.00;96082.69;5079273;28;20041;-76
2022/05/08 09:15:24;;;;;;;24.83;15.23;;;;;;;12.57;100.00;96068.97;5067293;28;20044;-76
2022/05/08 09:17:55;;;;;;;26.35;15.20;;;;;;;12.56;100.00;96072.66;5065741;28;20108;-76
2022/05/08 09:20:24;;;;;;;22.10;14.30;;;;;;;12.66;100.00;96077.13;5090898;28;20053;-74
2022/05/08 09:23:07;;;;;;;21.23;14.30;;;;;;;12.84;100.00;96078.38;5089251;28;20111;-75
2022/05/08 09:25:51;;;;;;;20.00;12.90;;;;;;;13.05;100.00;96079.09;5086053;28;20048;-75
2022/05/08 09:28:40;;;;;;;22.07;12.23;;;;;;;13.11;100.00;96077.22;5092553;28;20040;-74
2022/05/08 09:31:08;;;;;;;18.70;12.10;;;;;;;13.40;100.00;96074.72;5086524;28;20052;-74
2022/05/08 09:33:45;;;;;;;19.88;12.85;;;;;;;13.51;100.00;96075.47;5072870;28;20057;-74
2022/05/08 09:36:18;;;;;;;19.33;12.40;;;;;;;13.56;100.00;96080.75;5068691;28;20045;-75
2022/05/08 09:38:49;;;;;;;18.38;12.05;;;;;;;13.62;100.00;96077.00;5064310;28;20094;-74
2022/05/08 09:41:27;;;;;;;15.27;11.40;;;;;;;13.53;100.00;96068.03;5064765;28;20048;-74
2022/05/08 09:43:55;;;;;;;19.25;11.38;;;;;;;13.48;100.00;96070.72;5065179;28;20052;-75
2022/05/08 09:46:22;;;;;;;16.58;11.43;;;;;;;13.64;100.00;96069.56;5086627;28;20060;-76
2022/05/08 09:48:48;;;;;;;19.13;11.13;;;;;;;13.87;100.00;96067.28;5085472;28;20036;-74
2022/05/08 09:51:15;;;;;;;17.70;10.52;;;;;;;14.03;100.00;96066.09;5085136;28;20054;-75
2022/05/08 09:53:43;;;;;;;14.40;10.38;;;;;;;13.99;100.00;96065.09;5081751;28;20558;-75
2022/05/08 09:56:11;;;;;;;14.95;10.48;;;;;;;13.98;99.62;96074.09;5085061;28;20074;-74
2022/05/08 09:58:40;;;;;;;16.95;11.32;;;;;;;14.12;100.00;96068.16;5088150;28;20040;-76
2022/05/08 10:01:07;;;;;;;16.70;10.43;;;;;;;14.18;98.49;96067.06;5084203;28;20072;-74
2022/05/08 10:03:33;;;;;;;17.55;10.38;;;;;;;13.98;95.75;96068.78;5069995;28;20060;-75
2022/05/08 10:06:02;;;;;;;16.77;10.05;;;;;;;14.09;99.06;96074.00;5071155;28;20035;-74
2022/05/08 10:08:38;;;;;;;15.77;10.15;;;;;;;14.08;98.38;96059.19;5066509;28;20067;-76
2022/05/08 10:14:00;;;;;;;15.15;10.27;;;;;;;14.31;98.24;96069.03;5078280;28;20040;-73
2022/05/08 10:16:47;;;;;;;15.15;11.50;;;;;;;14.18;98.40;96072.34;5077758;28;20041;-76
2022/05/08 10:19:24;;;;;;;16.52;11.07;;;;;;;14.15;98.17;96067.59;5085890;28;20048;-73
2022/05/08 10:21:53;;;;;;;18.38;11.82;;;;;;;14.48;100.00;96065.16;5085852;28;20045;-73
2022/05/08 10:24:28;;;;;;;16.75;11.23;;;;;;;15.28;96.59;96061.09;5081192;28;20040;-75
2022/05/08 10:27:18;;;;;;;17.02;10.40;;;;;;;14.94;96.71;96067.38;5067116;28;20056;-75
2022/05/08 10:29:50;;;;;;;17.33;10.00;;;;;;;15.41;93.71;96056.94;5059872;28;20103;-75
2022/05/08 10:32:28;;;;;;;15.73;9.80;;;;;;;15.27;90.19;96059.53;5068550;28;20037;-75
2022/05/08 10:35:08;;;;;;;17.02;10.50;;;;;;;15.32;89.45;96067.41;5068386;28;20044;-76
2022/05/08 10:37:35;;;;;;;14.77;10.05;;;;;;;14.97;89.81;96061.50;5066873;28;20036;-75
2022/05/08 10:40:01;;;;;;;17.63;10.70;;;;;;;15.24;91.63;96060.09;5068823;28;20557;-77
2022/05/08 10:42:33;;;;;;;15.27;9.80;;;;;;;15.33;91.35;96063.69;5066806;28;20037;-75
2022/05/08 10:45:00;;;;;;;17.52;11.07;;;;;;;15.18;96.05;96055.94;5062983;28;20071;-74
2022/05/08 10:47:31;;;;;;;16.73;10.52;;;;;;;15.00;95.10;96066.22;5068976;28;20044;-73
2022/05/08 10:49:57;;;;;;;16.30;10.73;;;;;;;14.89;93.33;96060.25;5060339;28;20045;-73
2022/05/08 10:52:23;;;;;;;14.45;10.50;;;;;;;14.70;91.09;96062.84;5051557;28;20410;-74
2022/05/08 10:54:56;;;;;;;16.02;11.27;;;;;;;14.52;92.94;96061.69;5067570;28;20044;-74
2022/05/08 10:57:35;;;;;;;15.40;11.02;;;;;;;14.64;95.12;96065.81;5080110;28;20332;-74
2022/05/08 11:00:05;;;;;;;18.95;10.82;;;;;;;14.64;94.16;96063.97;5068604;28;20049;-73
2022/05/08 11:02:43;;;;;;;16.70;11.15;;;;;;;14.83;96.61;96065.91;5054109;28;20080;-75
2022/05/08 11:05:16;;;;;;;15.48;10.48;;;;;;;14.67;93.24;96063.41;5063345;28;20395;-73
2022/05/08 11:08:05;;;;;;;15.13;9.93;;;;;;;14.45;92.14;96060.44;5063162;28;20054;-75
2022/05/08 11:10:34;;;;;;;13.65;10.13;;;;;;;14.18;93.74;96067.84;5063214;28;20045;-73
2022/05/08 11:13:13;;;;;;;16.30;10.38;;;;;;;14.13;93.56;96069.72;5064930;28;20052;-74
2022/05/08 11:15:42;;;;;;;17.40;10.90;;;;;;;14.01;94.11;96062.94;5047436;28;20046;-74
2022/05/08 11:18:12;;;;;;;15.20;10.55;;;;;;;14.06;95.05;96063.97;5062422;28;20075;-73
2022/05/08 11:20:55;;;;;;;19.30;11.18;;;;;;;14.27;95.02;96054.78;5068600;28;20036;-73
2022/05/08 11:23:23;;;;;;;19.95;11.25;;;;;;;14.28;93.87;96056.38;5055564;28;20044;-73
2022/05/08 11:25:56;;;;;;;19.38;11.35;;;;;;;14.40;95.41;96057.84;5052538;28;20040;-75
2022/05/08 11:28:23;;;;;;;16.20;10.88;;;;;;;14.76;97.50;96065.44;5064322;28;20060;-75
2022/05/08 11:30:53;;;;;;;18.27;11.38;;;;;;;14.70;94.90;96057.56;5074754;28;20494;-77
2022/05/08 11:36:22;;;;;;;16.13;10.77;;;;;;;15.03;93.17;96060.34;5061012;28;20033;-75